Time,TemperatureF,DewpointF,PressureIn,WindDirection,WindDirectionDegrees,WindSpeedMPH,WindSpeedGustMPH,Humidity,HourlyPrecipIn,Conditions,Clouds,dailyrainin,SoftwareType,DateUTC
2013-10-04 00:07:00,55.6,43.0,30.03,NW,324,7.0,-999.0,64,-99.99,,,0.00,weatherlink.com 1.10,2013-10-04 07:07:00,
2013-10-04 00:21:00,54.6,43.0,30.04,NW,324,8.0,-999.0,64,-99.99,,,0.00,weatherlink.com 1.10,2013-10-04 07:21:00,
2013-10-04 00:36:00,53.5,43.0,30.04,North,5,4.0,-999.0,67,-99.99,,,0.00,weatherlink.com 1.10,2013-10-04 07:36:00,
2013-10-04 00:51:00,51.4,41.0,30.04,North,9,4.0,-999.0,68,-99.99,,,0.00,weatherlink.com 1.10,2013-10-04 07:51:00,
2013-10-04 01:07:00,51.2,41.0,30.04,NNW,343,8.0,-999.0,67,-99.99,,,0.00,weatherlink.com 1.10,2013-10-04 08:07:00,
2013-10-04 01:21:00,51.7,40.0,30.04,North,360,3.0,-999.0,64,-99.99,,,0.00,weatherlink.com 1.10,2013-10-04 08:21:00,
2013-10-04 01:36:00,50.3,39.0,30.05,North,355,5.0,-999.0,65,-99.99,,,0.00,weatherlink.com 1.10,2013-10-04 08:36:00,
2013-10-04 01:51:00,49.1,39.0,30.04,NE,36,4.0,-999.0,68,-99.99,,,0.00,weatherlink.com 1.10,2013-10-04 08:51:00,
2013-10-04 02:07:00,48.6,39.0,30.05,NE,36,4.0,-999.0,69,-99.99,,,0.00,weatherlink.com 1.10,2013-10-04 09:07:00,
2013-10-04 02:21:00,47.4,38.0,30.04,NNE,28,3.0,-999.0,70,-99.99,,,0.00,weatherlink.com 1.10,2013-10-04 09:21:00,
2013-10-04 02:36:00,47.4,38.0,30.04,North,360,3.0,-999.0,69,-99.99,,,0.00,weatherlink.com 1.10,2013-10-04 09:36:00,
2013-10-04 02:51:00,47.0,38.0,30.04,NNE,32,5.0,-999.0,71,-99.99,,,0.00,weatherlink.com 1.10,2013-10-04 09:51:00,
2013-10-04 03:06:00,46.8,38.0,30.03,NE,40,3.0,-999.0,71,-99.99,,,0.00,weatherlink.com 1.10,2013-10-04 10:06:00,
2013-10-04 03:21:00,47.9,37.0,30.03,North,350,7.0,-999.0,66,-99.99,,,0.00,weatherlink.com 1.10,2013-10-04 10:21:00,
2013-10-04 03:36:00,49.9,38.0,30.02,NNE,33,6.0,-999.0,63,-99.99,,,0.00,weatherlink.com 1.10,2013-10-04 10:36:00,
2013-10-04 03:51:00,48.9,37.0,30.02,North,11,3.0,-999.0,64,-99.99,,,0.00,weatherlink.com 1.10,2013-10-04 10:51:00,
2013-10-04 04:06:00,48.7,37.0,30.02,NNE,30,5.0,-999.0,64,-99.99,,,0.00,weatherlink.com 1.10,2013-10-04 11:06:00,
2013-10-04 04:20:00,48.7,36.0,30.02,NE,36,2.0,-999.0,63,-99.99,,,0.00,weatherlink.com 1.10,2013-10-04 11:20:00,
2013-10-04 04:35:00,48.8,36.0,30.02,NNE,25,5.0,-999.0,62,-99.99,,,0.00,weatherlink.com 1.10,2013-10-04 11:35:00,
2013-10-04 04:50:00,49.2,37.0,30.02,NE,39,5.0,-999.0,62,-99.99,,,0.00,weatherlink.com 1.10,2013-10-04 11:50:00,
2013-10-04 05:06:00,49.6,37.0,30.02,NE,47,7.0,-999.0,62,-99.99,,,0.00,weatherlink.com 1.10,2013-10-04 12:06:00,
2013-10-04 05:20:00,49.6,36.0,30.02,NE,44,5.0,-999.0,61,-99.99,,,0.00,weatherlink.com 1.10,2013-10-04 12:20:00,
2013-10-04 05:35:00,49.7,35.0,30.02,NE,47,5.0,-999.0,58,-99.99,,,0.00,weatherlink.com 1.10,2013-10-04 12:35:00,
2013-10-04 05:50:00,50.1,37.0,30.02,NE,44,5.0,-999.0,61,-99.99,,,0.00,weatherlink.com 1.10,2013-10-04 12:50:00,
2013-10-04 06:06:00,49.0,35.0,30.02,NE,42,4.0,-999.0,60,-99.99,,,0.00,weatherlink.com 1.10,2013-10-04 13:06:00,
2013-10-04 06:21:00,49.3,35.0,30.02,NE,35,4.0,-999.0,59,-99.99,,,0.00,weatherlink.com 1.10,2013-10-04 13:21:00,
2013-10-04 06:35:00,49.7,35.0,30.03,NNE,17,3.0,-999.0,57,-99.99,,,0.00,weatherlink.com 1.10,2013-10-04 13:35:00,
2013-10-04 06:51:00,50.0,34.0,30.03,NE,42,2.0,-999.0,55,-99.99,,,0.00,weatherlink.com 1.10,2013-10-04 13:51:00,
2013-10-04 07:06:00,49.7,33.0,30.03,NE,42,1.0,-999.0,53,-99.99,,,0.00,weatherlink.com 1.10,2013-10-04 14:06:00,
2013-10-04 07:21:00,49.7,34.0,30.03,NE,40,4.0,-999.0,55,-99.99,,,0.00,weatherlink.com 1.10,2013-10-04 14:21:00,
2013-10-04 07:36:00,49.4,34.0,30.03,NE,40,2.0,-999.0,56,-99.99,,,0.00,weatherlink.com 1.10,2013-10-04 14:36:00,
2013-10-04 07:51:00,48.7,35.0,30.04,NE,40,1.0,-999.0,59,-99.99,,,0.00,weatherlink.com 1.10,2013-10-04 14:51:00,
2013-10-04 08:07:00,48.7,33.0,30.04,NE,40,2.0,-999.0,55,-99.99,,,0.00,weatherlink.com 1.10,2013-10-04 15:07:00,
2013-10-04 08:21:00,51.0,35.0,30.04,NNE,24,3.0,-999.0,55,-99.99,,,0.00,weatherlink.com 1.10,2013-10-04 15:21:00,
2013-10-04 08:36:00,54.1,34.0,30.05,North,5,5.0,-999.0,47,-99.99,,,0.00,weatherlink.com 1.10,2013-10-04 15:36:00,
2013-10-04 08:51:00,56.5,38.0,30.05,SE,141,1.0,-999.0,51,-99.99,,,0.00,weatherlink.com 1.10,2013-10-04 15:51:00,
2013-10-04 09:07:00,58.4,39.0,30.06,SE,141,1.0,-999.0,49,-99.99,,,0.00,weatherlink.com 1.10,2013-10-04 16:07:00,
2013-10-04 09:21:00,62.0,41.0,30.06,SSW,205,0.0,-999.0,46,-99.99,,,0.00,weatherlink.com 1.10,2013-10-04 16:21:00,
2013-10-04 09:36:00,65.5,41.0,30.06,WSW,247,3.0,-999.0,41,-99.99,,,0.00,weatherlink.com 1.10,2013-10-04 16:36:00,
2013-10-04 09:51:00,64.8,36.0,30.06,NW,307,2.0,-999.0,34,-99.99,,,0.00,weatherlink.com 1.10,2013-10-04 16:51:00,
2013-10-04 10:12:00,66.2,35.0,30.06,NNW,335,6.0,-999.0,31,-99.99,,,0.00,weatherlink.com 1.10,2013-10-04 17:12:00,
2013-10-04 10:21:00,68.1,34.0,30.06,NNW,343,9.0,-999.0,28,-99.99,,,0.00,weatherlink.com 1.10,2013-10-04 17:21:00,
2013-10-04 10:36:00,68.4,34.0,30.06,North,355,7.0,-999.0,28,-99.99,,,0.00,weatherlink.com 1.10,2013-10-04 17:36:00,
2013-10-04 11:12:00,68.9,36.0,30.06,NW,317,7.0,-999.0,30,-99.99,,,0.00,weatherlink.com 1.10,2013-10-04 18:12:00,
2013-10-04 11:20:00,68.1,40.0,30.05,NE,36,3.0,-999.0,36,-99.99,,,0.00,weatherlink.com 1.10,2013-10-04 18:20:00,
2013-10-04 11:36:00,69.0,39.0,30.05,North,9,5.0,-999.0,34,-99.99,,,0.00,weatherlink.com 1.10,2013-10-04 18:36:00,
2013-10-04 11:51:00,70.6,39.0,30.05,NNE,12,8.0,-999.0,32,-99.99,,,0.00,weatherlink.com 1.10,2013-10-04 18:51:00,
2013-10-04 12:12:00,69.7,38.0,30.05,NNW,327,7.0,-999.0,31,-99.99,,,0.00,weatherlink.com 1.10,2013-10-04 19:12:00,
2013-10-04 12:20:00,67.6,37.0,30.05,NW,323,7.0,-999.0,33,-99.99,,,0.00,weatherlink.com 1.10,2013-10-04 19:20:00,
2013-10-04 12:35:00,65.8,39.0,30.04,NW,323,9.0,-999.0,37,-99.99,,,0.00,weatherlink.com 1.10,2013-10-04 19:35:00,
2013-10-04 12:50:00,65.7,40.0,30.04,NW,311,12.0,-999.0,39,-99.99,,,0.00,weatherlink.com 1.10,2013-10-04 19:50:00,
2013-10-04 13:05:00,66.6,36.0,30.04,NNE,14,7.0,-999.0,33,-99.99,,,0.00,weatherlink.com 1.10,2013-10-04 20:05:00,
2013-10-04 13:21:00,67.7,39.0,30.03,NNW,343,4.0,-999.0,35,-99.99,,,0.00,weatherlink.com 1.10,2013-10-04 20:21:00,
2013-10-04 13:36:00,65.7,42.0,30.02,WNW,300,7.0,-999.0,42,-99.99,,,0.00,weatherlink.com 1.10,2013-10-04 20:36:00,
2013-10-04 13:51:00,66.6,40.0,30.02,NNW,344,7.0,-999.0,38,-99.99,,,0.00,weatherlink.com 1.10,2013-10-04 20:51:00,
2013-10-04 14:12:00,68.7,40.0,30.01,NW,325,13.0,-999.0,35,-99.99,,,0.00,weatherlink.com 1.10,2013-10-04 21:12:00,
2013-10-04 14:20:00,69.3,41.0,30.01,NNE,31,3.0,-999.0,36,-99.99,,,0.00,weatherlink.com 1.10,2013-10-04 21:20:00,
2013-10-04 14:35:00,70.3,41.0,30.00,NE,34,6.0,-999.0,35,-99.99,,,0.00,weatherlink.com 1.10,2013-10-04 21:35:00,
2013-10-04 14:50:00,71.2,42.0,30.00,North,360,3.0,-999.0,35,-99.99,,,0.00,weatherlink.com 1.10,2013-10-04 21:50:00,
2013-10-04 15:13:00,71.2,45.0,30.00,NNE,19,3.0,-999.0,39,-99.99,,,0.00,weatherlink.com 1.10,2013-10-04 22:13:00,
2013-10-04 15:21:00,71.0,45.0,30.00,NNE,30,9.0,-999.0,39,-99.99,,,0.00,weatherlink.com 1.10,2013-10-04 22:21:00,
2013-10-04 15:36:00,70.9,45.0,30.00,NNW,336,8.0,-999.0,39,-99.99,,,0.00,weatherlink.com 1.10,2013-10-04 22:36:00,
2013-10-04 15:51:00,72.8,43.0,29.99,NNW,337,6.0,-999.0,34,-99.99,,,0.00,weatherlink.com 1.10,2013-10-04 22:51:00,
2013-10-04 16:12:00,71.2,43.0,29.99,North,360,3.0,-999.0,36,-99.99,,,0.00,weatherlink.com 1.10,2013-10-04 23:12:00,
2013-10-04 16:21:00,72.8,42.0,29.99,NE,34,1.0,-999.0,33,-99.99,,,0.00,weatherlink.com 1.10,2013-10-04 23:21:00,
2013-10-04 16:36:00,73.5,45.0,29.99,NNW,336,5.0,-999.0,36,-99.99,,,0.00,weatherlink.com 1.10,2013-10-04 23:36:00,
2013-10-04 16:51:00,74.5,43.0,29.98,NNW,346,8.0,-999.0,32,-99.99,,,0.00,weatherlink.com 1.10,2013-10-04 23:51:00,
2013-10-04 17:12:00,75.5,39.0,29.98,North,355,6.0,-999.0,27,-99.99,,,0.00,weatherlink.com 1.10,2013-10-05 00:12:00,
2013-10-04 17:20:00,76.8,38.0,29.98,North,5,3.0,-999.0,25,-99.99,,,0.00,weatherlink.com 1.10,2013-10-05 00:20:00,
2013-10-04 17:36:00,77.4,38.0,29.98,NNW,334,0.0,-999.0,24,-99.99,,,0.00,weatherlink.com 1.10,2013-10-05 00:36:00,
2013-10-04 17:51:00,68.0,44.0,29.98,South,183,0.0,-999.0,42,-99.99,,,0.00,weatherlink.com 1.10,2013-10-05 00:51:00,
2013-10-04 18:06:00,67.5,45.0,29.98,South,183,0.0,-999.0,44,-99.99,,,0.00,weatherlink.com 1.10,2013-10-05 01:06:00,
2013-10-04 18:21:00,68.1,46.0,29.98,South,183,0.0,-999.0,46,-99.99,,,0.00,weatherlink.com 1.10,2013-10-05 01:21:00,
2013-10-04 18:37:00,66.5,47.0,29.98,East,80,3.0,-999.0,50,-99.99,,,0.00,weatherlink.com 1.10,2013-10-05 01:37:00,
2013-10-04 18:51:00,65.4,45.0,29.99,ENE,67,5.0,-999.0,48,-99.99,,,0.00,weatherlink.com 1.10,2013-10-05 01:51:00,
2013-10-04 19:06:00,63.5,46.0,29.99,ESE,115,0.0,-999.0,53,-99.99,,,0.00,weatherlink.com 1.10,2013-10-05 02:06:00,
2013-10-04 19:21:00,62.0,43.0,29.99,ESE,115,0.0,-999.0,50,-99.99,,,0.00,weatherlink.com 1.10,2013-10-05 02:21:00,
2013-10-04 19:36:00,60.4,40.0,29.99,ESE,115,1.0,-999.0,48,-99.99,,,0.00,weatherlink.com 1.10,2013-10-05 02:36:00,
2013-10-04 19:51:00,59.3,40.0,29.99,ENE,64,2.0,-999.0,50,-99.99,,,0.00,weatherlink.com 1.10,2013-10-05 02:51:00,
2013-10-04 20:06:00,58.8,39.0,30.00,ENE,67,0.0,-999.0,48,-99.99,,,0.00,weatherlink.com 1.10,2013-10-05 03:06:00,
2013-10-04 20:21:00,58.4,38.0,30.00,ENE,73,3.0,-999.0,47,-99.99,,,0.00,weatherlink.com 1.10,2013-10-05 03:21:00,
2013-10-04 20:36:00,58.6,38.0,30.00,ENE,76,4.0,-999.0,46,-99.99,,,0.00,weatherlink.com 1.10,2013-10-05 03:36:00,
2013-10-04 20:50:00,58.7,37.0,30.00,ENE,77,4.0,-999.0,45,-99.99,,,0.00,weatherlink.com 1.10,2013-10-05 03:50:00,
2013-10-04 21:07:00,58.6,35.0,30.00,ENE,77,4.0,-999.0,42,-99.99,,,0.00,weatherlink.com 1.10,2013-10-05 04:07:00,
2013-10-04 21:21:00,59.3,35.0,30.01,ENE,76,2.0,-999.0,41,-99.99,,,0.00,weatherlink.com 1.10,2013-10-05 04:21:00,
2013-10-04 21:37:00,59.5,34.0,30.01,ENE,70,6.0,-999.0,39,-99.99,,,0.00,weatherlink.com 1.10,2013-10-05 04:37:00,
2013-10-04 21:52:00,60.5,34.0,30.01,ENE,69,4.0,-999.0,37,-99.99,,,0.00,weatherlink.com 1.10,2013-10-05 04:52:00,
2013-10-04 22:05:00,60.9,33.0,30.01,ENE,73,4.0,-999.0,35,-99.99,,,0.00,weatherlink.com 1.10,2013-10-05 05:05:00,
2013-10-04 22:21:00,60.7,33.0,30.02,ENE,70,3.0,-999.0,35,-99.99,,,0.00,weatherlink.com 1.10,2013-10-05 05:21:00,
2013-10-04 22:36:00,60.5,33.0,30.01,ENE,75,4.0,-999.0,35,-99.99,,,0.00,weatherlink.com 1.10,2013-10-05 05:36:00,
2013-10-04 22:52:00,60.4,32.0,30.02,ENE,66,4.0,-999.0,34,-99.99,,,0.00,weatherlink.com 1.10,2013-10-05 05:52:00,
2013-10-04 23:06:00,60.9,31.0,30.02,East,84,6.0,-999.0,32,-99.99,,,0.00,weatherlink.com 1.10,2013-10-05 06:06:00,
2013-10-04 23:21:00,61.6,31.0,30.02,ENE,76,5.0,-999.0,31,-99.99,,,0.00,weatherlink.com 1.10,2013-10-05 06:21:00,
2013-10-04 23:36:00,61.6,31.0,30.02,ENE,65,5.0,-999.0,31,-99.99,,,0.00,weatherlink.com 1.10,2013-10-05 06:36:00,
2013-10-04 23:51:00,61.4,30.0,30.02,ENE,69,4.0,-999.0,31,-99.99,,,0.00,weatherlink.com 1.10,2013-10-05 06:51:00,